sensor_id;sensor_type;location;lat;lon;timestamp;P1;P2;P0
56688;PMS5003;42565;53.342;-1.534;2023-12-20T00:01:33;4;3;
56688;PMS5003;42565;53.342;-1.534;2023-12-20T00:04:01;2;2;
56688;PMS5003;42565;53.342;-1.534;2023-12-20T00:06:29;5;4;
56688;PMS5003;42565;53.342;-1.534;2023-12-20T00:08:56;7;5;
56688;PMS5003;42565;53.342;-1.534;2023-12-20T00:11:22;7;4;
56688;PMS5003;42565;53.342;-1.534;2023-12-20T00:13:50;4;3;
56688;PMS5003;42565;53.342;-1.534;2023-12-20T00:16:17;5;3;
56688;PMS5003;42565;53.342;-1.534;2023-12-20T00:18:44;6;2;
56688;PMS5003;42565;53.342;-1.534;2023-12-20T00:21:11;3;2;
56688;PMS5003;42565;53.342;-1.534;2023-12-20T00:23:39;3;2;
56688;PMS5003;42565;53.342;-1.534;2023-12-20T00:26:05;5;4;
56688;PMS5003;42565;53.342;-1.534;2023-12-20T00:28:32;3;3;
56688;PMS5003;42565;53.342;-1.534;2023-12-20T00:30:59;4;4;
56688;PMS5003;42565;53.342;-1.534;2023-12-20T00:33:25;4;3;
56688;PMS5003;42565;53.342;-1.534;2023-12-20T00:35:52;5;3;
56688;PMS5003;42565;53.342;-1.534;2023-12-20T00:38:20;4;2;
56688;PMS5003;42565;53.342;-1.534;2023-12-20T00:40:47;5;3;
56688;PMS5003;42565;53.342;-1.534;2023-12-20T00:43:15;4;2;
56688;PMS5003;42565;53.342;-1.534;2023-12-20T00:45:42;4;3;
56688;PMS5003;42565;53.342;-1.534;2023-12-20T00:48:10;3;3;
56688;PMS5003;42565;53.342;-1.534;2023-12-20T00:50:37;3;2;
56688;PMS5003;42565;53.342;-1.534;2023-12-20T00:53:04;4;4;
56688;PMS5003;42565;53.342;-1.534;2023-12-20T00:55:31;6;5;
56688;PMS5003;42565;53.342;-1.534;2023-12-20T00:57:59;6;4;
56688;PMS5003;42565;53.342;-1.534;2023-12-20T01:00:25;6;4;
56688;PMS5003;42565;53.342;-1.534;2023-12-20T01:02:52;6;4;
56688;PMS5003;42565;53.342;-1.534;2023-12-20T01:05:19;4;3;
56688;PMS5003;42565;53.342;-1.534;2023-12-20T01:07:47;4;3;
56688;PMS5003;42565;53.342;-1.534;2023-12-20T01:10:14;3;3;
56688;PMS5003;42565;53.342;-1.534;2023-12-20T01:12:41;4;3;
56688;PMS5003;42565;53.342;-1.534;2023-12-20T01:15:09;6;3;
56688;PMS5003;42565;53.342;-1.534;2023-12-20T01:17:37;3;2;
56688;PMS5003;42565;53.342;-1.534;2023-12-20T01:20:04;4;3;
56688;PMS5003;42565;53.342;-1.534;2023-12-20T01:22:32;5;4;
56688;PMS5003;42565;53.342;-1.534;2023-12-20T01:24:59;4;3;
56688;PMS5003;42565;53.342;-1.534;2023-12-20T01:27:26;4;4;
56688;PMS5003;42565;53.342;-1.534;2023-12-20T01:29:53;5;4;
56688;PMS5003;42565;53.342;-1.534;2023-12-20T01:32:20;5;4;
56688;PMS5003;42565;53.342;-1.534;2023-12-20T01:34:47;6;4;
56688;PMS5003;42565;53.342;-1.534;2023-12-20T01:37:13;3;2;
56688;PMS5003;42565;53.342;-1.534;2023-12-20T01:39:40;5;3;
56688;PMS5003;42565;53.342;-1.534;2023-12-20T01:42:07;3;3;
56688;PMS5003;42565;53.342;-1.534;2023-12-20T01:44:34;3;1;
56688;PMS5003;42565;53.342;-1.534;2023-12-20T01:47:01;2;2;
56688;PMS5003;42565;53.342;-1.534;2023-12-20T01:49:29;5;4;
56688;PMS5003;42565;53.342;-1.534;2023-12-20T01:51:56;4;4;
56688;PMS5003;42565;53.342;-1.534;2023-12-20T01:54:23;4;3;
56688;PMS5003;42565;53.342;-1.534;2023-12-20T01:56:51;4;3;
56688;PMS5003;42565;53.342;-1.534;2023-12-20T01:59:18;4;4;
56688;PMS5003;42565;53.342;-1.534;2023-12-20T02:01:47;3;3;
56688;PMS5003;42565;53.342;-1.534;2023-12-20T02:04:14;6;4;
56688;PMS5003;42565;53.342;-1.534;2023-12-20T02:06:42;5;3;
56688;PMS5003;42565;53.342;-1.534;2023-12-20T02:09:10;6;4;
56688;PMS5003;42565;53.342;-1.534;2023-12-20T02:11:37;8;5;
56688;PMS5003;42565;53.342;-1.534;2023-12-20T02:14:05;5;4;
56688;PMS5003;42565;53.342;-1.534;2023-12-20T02:16:32;4;4;
56688;PMS5003;42565;53.342;-1.534;2023-12-20T02:18:58;5;3;
56688;PMS5003;42565;53.342;-1.534;2023-12-20T02:21:25;6;5;
56688;PMS5003;42565;53.342;-1.534;2023-12-20T02:23:58;5;5;
56688;PMS5003;42565;53.342;-1.534;2023-12-20T02:26:25;6;5;
56688;PMS5003;42565;53.342;-1.534;2023-12-20T02:28:53;6;5;
56688;PMS5003;42565;53.342;-1.534;2023-12-20T02:31:20;5;4;
56688;PMS5003;42565;53.342;-1.534;2023-12-20T02:33:47;6;4;
56688;PMS5003;42565;53.342;-1.534;2023-12-20T02:36:14;6;4;
56688;PMS5003;42565;53.342;-1.534;2023-12-20T02:38:40;5;4;
56688;PMS5003;42565;53.342;-1.534;2023-12-20T02:41:07;7;5;
56688;PMS5003;42565;53.342;-1.534;2023-12-20T02:43:34;7;6;
56688;PMS5003;42565;53.342;-1.534;2023-12-20T02:46:01;4;3;
56688;PMS5003;42565;53.342;-1.534;2023-12-20T02:48:28;8;5;
56688;PMS5003;42565;53.342;-1.534;2023-12-20T02:50:56;4;3;
56688;PMS5003;42565;53.342;-1.534;2023-12-20T02:53:23;3;3;
56688;PMS5003;42565;53.342;-1.534;2023-12-20T02:55:50;4;4;
56688;PMS5003;42565;53.342;-1.534;2023-12-20T02:58:17;6;4;
56688;PMS5003;42565;53.342;-1.534;2023-12-20T03:00:43;5;2;
56688;PMS5003;42565;53.342;-1.534;2023-12-20T03:03:10;6;4;
56688;PMS5003;42565;53.342;-1.534;2023-12-20T03:05:37;7;4;
56688;PMS5003;42565;53.342;-1.534;2023-12-20T03:08:04;3;3;
56688;PMS5003;42565;53.342;-1.534;2023-12-20T03:10:31;3;1;
56688;PMS5003;42565;53.342;-1.534;2023-12-20T03:12:58;3;1;
56688;PMS5003;42565;53.342;-1.534;2023-12-20T03:15:25;3;2;
56688;PMS5003;42565;53.342;-1.534;2023-12-20T03:17:52;4;3;
56688;PMS5003;42565;53.342;-1.534;2023-12-20T03:20:18;5;2;
56688;PMS5003;42565;53.342;-1.534;2023-12-20T03:22:45;4;4;
56688;PMS5003;42565;53.342;-1.534;2023-12-20T03:25:12;5;3;
56688;PMS5003;42565;53.342;-1.534;2023-12-20T03:27:39;3;1;
56688;PMS5003;42565;53.342;-1.534;2023-12-20T03:30:06;3;3;
56688;PMS5003;42565;53.342;-1.534;2023-12-20T03:32:33;2;2;
56688;PMS5003;42565;53.342;-1.534;2023-12-20T03:35:01;4;3;
56688;PMS5003;42565;53.342;-1.534;2023-12-20T03:37:28;2;2;
56688;PMS5003;42565;53.342;-1.534;2023-12-20T03:39:55;2;2;
56688;PMS5003;42565;53.342;-1.534;2023-12-20T03:42:21;2;2;
56688;PMS5003;42565;53.342;-1.534;2023-12-20T03:44:48;4;2;
56688;PMS5003;42565;53.342;-1.534;2023-12-20T03:47:15;8;3;
56688;PMS5003;42565;53.342;-1.534;2023-12-20T03:49:42;4;2;
56688;PMS5003;42565;53.342;-1.534;2023-12-20T03:52:08;3;2;
56688;PMS5003;42565;53.342;-1.534;2023-12-20T03:54:35;3;3;
56688;PMS5003;42565;53.342;-1.534;2023-12-20T03:57:02;3;2;
56688;PMS5003;42565;53.342;-1.534;2023-12-20T03:59:30;2;2;
56688;PMS5003;42565;53.342;-1.534;2023-12-20T04:02:01;4;3;
56688;PMS5003;42565;53.342;-1.534;2023-12-20T04:04:29;4;3;
56688;PMS5003;42565;53.342;-1.534;2023-12-20T04:06:57;4;3;
56688;PMS5003;42565;53.342;-1.534;2023-12-20T04:09:23;2;1;
56688;PMS5003;42565;53.342;-1.534;2023-12-20T04:11:50;3;3;
56688;PMS5003;42565;53.342;-1.534;2023-12-20T04:14:17;5;3;
56688;PMS5003;42565;53.342;-1.534;2023-12-20T04:16:43;3;3;
56688;PMS5003;42565;53.342;-1.534;2023-12-20T04:19:10;4;2;
56688;PMS5003;42565;53.342;-1.534;2023-12-20T04:21:37;5;3;
56688;PMS5003;42565;53.342;-1.534;2023-12-20T04:24:04;4;2;
56688;PMS5003;42565;53.342;-1.534;2023-12-20T04:26:31;5;3;
56688;PMS5003;42565;53.342;-1.534;2023-12-20T04:28:59;2;1;
56688;PMS5003;42565;53.342;-1.534;2023-12-20T04:31:26;3;3;
56688;PMS5003;42565;53.342;-1.534;2023-12-20T04:33:52;2;2;
56688;PMS5003;42565;53.342;-1.534;2023-12-20T04:36:19;2;2;
56688;PMS5003;42565;53.342;-1.534;2023-12-20T04:38:46;2;2;
56688;PMS5003;42565;53.342;-1.534;2023-12-20T04:41:13;2;1;
56688;PMS5003;42565;53.342;-1.534;2023-12-20T04:43:39;3;2;
56688;PMS5003;42565;53.342;-1.534;2023-12-20T04:46:06;2;2;
56688;PMS5003;42565;53.342;-1.534;2023-12-20T04:48:33;2;1;
56688;PMS5003;42565;53.342;-1.534;2023-12-20T04:51:00;3;2;
56688;PMS5003;42565;53.342;-1.534;2023-12-20T04:53:27;1;1;
56688;PMS5003;42565;53.342;-1.534;2023-12-20T04:55:55;3;2;
56688;PMS5003;42565;53.342;-1.534;2023-12-20T04:58:21;1;1;
56688;PMS5003;42565;53.342;-1.534;2023-12-20T05:00:48;3;3;
56688;PMS5003;42565;53.342;-1.534;2023-12-20T05:03:16;2;2;
56688;PMS5003;42565;53.342;-1.534;2023-12-20T05:05:42;2;2;
56688;PMS5003;42565;53.342;-1.534;2023-12-20T05:08:09;3;3;
56688;PMS5003;42565;53.342;-1.534;2023-12-20T05:10:36;2;2;
56688;PMS5003;42565;53.342;-1.534;2023-12-20T05:13:03;4;4;
56688;PMS5003;42565;53.342;-1.534;2023-12-20T05:15:30;3;1;
56688;PMS5003;42565;53.342;-1.534;2023-12-20T05:17:57;4;3;
56688;PMS5003;42565;53.342;-1.534;2023-12-20T05:20:24;5;3;
56688;PMS5003;42565;53.342;-1.534;2023-12-20T05:22:50;4;3;
56688;PMS5003;42565;53.342;-1.534;2023-12-20T05:25:17;0;0;
56688;PMS5003;42565;53.342;-1.534;2023-12-20T05:27:45;2;1;
56688;PMS5003;42565;53.342;-1.534;2023-12-20T05:30:12;2;1;
56688;PMS5003;42565;53.342;-1.534;2023-12-20T05:32:39;1;1;
56688;PMS5003;42565;53.342;-1.534;2023-12-20T05:35:06;2;1;
56688;PMS5003;42565;53.342;-1.534;2023-12-20T05:37:33;3;1;
56688;PMS5003;42565;53.342;-1.534;2023-12-20T05:40:00;1;1;
56688;PMS5003;42565;53.342;-1.534;2023-12-20T05:42:27;2;1;
56688;PMS5003;42565;53.342;-1.534;2023-12-20T05:44:53;1;1;
56688;PMS5003;42565;53.342;-1.534;2023-12-20T05:47:20;1;0;
56688;PMS5003;42565;53.342;-1.534;2023-12-20T05:49:47;2;2;
56688;PMS5003;42565;53.342;-1.534;2023-12-20T05:52:14;2;1;
56688;PMS5003;42565;53.342;-1.534;2023-12-20T05:54:40;2;2;
56688;PMS5003;42565;53.342;-1.534;2023-12-20T05:57:07;2;1;
56688;PMS5003;42565;53.342;-1.534;2023-12-20T05:59:34;2;1;
56688;PMS5003;42565;53.342;-1.534;2023-12-20T06:02:02;2;1;
56688;PMS5003;42565;53.342;-1.534;2023-12-20T06:04:30;2;1;
56688;PMS5003;42565;53.342;-1.534;2023-12-20T06:06:57;3;1;
56688;PMS5003;42565;53.342;-1.534;2023-12-20T06:09:23;1;1;
56688;PMS5003;42565;53.342;-1.534;2023-12-20T06:11:50;1;1;
56688;PMS5003;42565;53.342;-1.534;2023-12-20T06:14:17;4;1;
56688;PMS5003;42565;53.342;-1.534;2023-12-20T06:16:44;2;2;
56688;PMS5003;42565;53.342;-1.534;2023-12-20T06:19:11;0;0;
56688;PMS5003;42565;53.342;-1.534;2023-12-20T06:21:38;2;1;
56688;PMS5003;42565;53.342;-1.534;2023-12-20T06:24:05;3;3;
56688;PMS5003;42565;53.342;-1.534;2023-12-20T06:26:32;3;0;
56688;PMS5003;42565;53.342;-1.534;2023-12-20T06:28:59;1;1;
56688;PMS5003;42565;53.342;-1.534;2023-12-20T06:31:26;2;2;
56688;PMS5003;42565;53.342;-1.534;2023-12-20T06:33:53;3;1;
56688;PMS5003;42565;53.342;-1.534;2023-12-20T06:36:20;1;1;
56688;PMS5003;42565;53.342;-1.534;2023-12-20T06:38:46;2;1;
56688;PMS5003;42565;53.342;-1.534;2023-12-20T06:41:13;1;0;
56688;PMS5003;42565;53.342;-1.534;2023-12-20T06:43:42;2;1;
56688;PMS5003;42565;53.342;-1.534;2023-12-20T06:46:09;2;2;
56688;PMS5003;42565;53.342;-1.534;2023-12-20T06:48:37;1;1;
56688;PMS5003;42565;53.342;-1.534;2023-12-20T06:51:04;1;0;
56688;PMS5003;42565;53.342;-1.534;2023-12-20T06:53:31;1;1;
56688;PMS5003;42565;53.342;-1.534;2023-12-20T06:55:58;2;1;
56688;PMS5003;42565;53.342;-1.534;2023-12-20T06:58:25;2;1;
56688;PMS5003;42565;53.342;-1.534;2023-12-20T07:00:51;1;1;
56688;PMS5003;42565;53.342;-1.534;2023-12-20T07:03:19;1;1;
56688;PMS5003;42565;53.342;-1.534;2023-12-20T07:05:47;0;0;
56688;PMS5003;42565;53.342;-1.534;2023-12-20T07:08:14;1;1;
56688;PMS5003;42565;53.342;-1.534;2023-12-20T07:10:41;1;1;
56688;PMS5003;42565;53.342;-1.534;2023-12-20T07:13:07;3;2;
56688;PMS5003;42565;53.342;-1.534;2023-12-20T07:15:34;2;0;
56688;PMS5003;42565;53.342;-1.534;2023-12-20T07:18:01;3;1;
56688;PMS5003;42565;53.342;-1.534;2023-12-20T07:20:27;1;0;
56688;PMS5003;42565;53.342;-1.534;2023-12-20T07:22:54;1;1;
56688;PMS5003;42565;53.342;-1.534;2023-12-20T07:25:21;2;1;
56688;PMS5003;42565;53.342;-1.534;2023-12-20T07:27:48;2;2;
56688;PMS5003;42565;53.342;-1.534;2023-12-20T07:30:15;0;0;
56688;PMS5003;42565;53.342;-1.534;2023-12-20T07:32:42;2;1;
56688;PMS5003;42565;53.342;-1.534;2023-12-20T07:35:09;4;3;
56688;PMS5003;42565;53.342;-1.534;2023-12-20T07:37:36;2;1;
56688;PMS5003;42565;53.342;-1.534;2023-12-20T07:40:03;2;1;
56688;PMS5003;42565;53.342;-1.534;2023-12-20T07:42:32;1;1;
56688;PMS5003;42565;53.342;-1.534;2023-12-20T07:44:58;2;1;
56688;PMS5003;42565;53.342;-1.534;2023-12-20T07:47:25;0;0;
56688;PMS5003;42565;53.342;-1.534;2023-12-20T07:49:53;0;0;
56688;PMS5003;42565;53.342;-1.534;2023-12-20T07:52:20;4;1;
56688;PMS5003;42565;53.342;-1.534;2023-12-20T07:54:47;0;0;
56688;PMS5003;42565;53.342;-1.534;2023-12-20T07:57:14;0;0;
56688;PMS5003;42565;53.342;-1.534;2023-12-20T07:59:40;1;1;
56688;PMS5003;42565;53.342;-1.534;2023-12-20T08:02:07;1;1;
56688;PMS5003;42565;53.342;-1.534;2023-12-20T08:04:35;1;1;
56688;PMS5003;42565;53.342;-1.534;2023-12-20T08:07:03;2;1;
56688;PMS5003;42565;53.342;-1.534;2023-12-20T08:09:31;3;1;
56688;PMS5003;42565;53.342;-1.534;2023-12-20T08:11:57;2;0;
56688;PMS5003;42565;53.342;-1.534;2023-12-20T08:14:24;2;2;
56688;PMS5003;42565;53.342;-1.534;2023-12-20T08:16:52;1;1;
56688;PMS5003;42565;53.342;-1.534;2023-12-20T08:19:18;2;1;
56688;PMS5003;42565;53.342;-1.534;2023-12-20T08:21:45;0;0;
56688;PMS5003;42565;53.342;-1.534;2023-12-20T08:24:12;0;0;
56688;PMS5003;42565;53.342;-1.534;2023-12-20T08:26:39;3;0;
56688;PMS5003;42565;53.342;-1.534;2023-12-20T08:29:06;1;1;
56688;PMS5003;42565;53.342;-1.534;2023-12-20T08:31:33;1;1;
56688;PMS5003;42565;53.342;-1.534;2023-12-20T08:33:59;3;1;
56688;PMS5003;42565;53.342;-1.534;2023-12-20T08:36:27;0;0;
56688;PMS5003;42565;53.342;-1.534;2023-12-20T08:38:55;1;1;
56688;PMS5003;42565;53.342;-1.534;2023-12-20T08:41:22;1;0;
56688;PMS5003;42565;53.342;-1.534;2023-12-20T08:43:49;2;1;
56688;PMS5003;42565;53.342;-1.534;2023-12-20T08:46:16;1;1;
56688;PMS5003;42565;53.342;-1.534;2023-12-20T08:48:42;1;1;
56688;PMS5003;42565;53.342;-1.534;2023-12-20T08:51:10;0;0;
56688;PMS5003;42565;53.342;-1.534;2023-12-20T08:53:37;3;1;
56688;PMS5003;42565;53.342;-1.534;2023-12-20T08:56:04;3;1;
56688;PMS5003;42565;53.342;-1.534;2023-12-20T08:58:32;1;1;
56688;PMS5003;42565;53.342;-1.534;2023-12-20T09:00:59;1;1;
56688;PMS5003;42565;53.342;-1.534;2023-12-20T09:03:25;1;1;
56688;PMS5003;42565;53.342;-1.534;2023-12-20T09:05:52;2;2;
56688;PMS5003;42565;53.342;-1.534;2023-12-20T09:08:20;2;1;
56688;PMS5003;42565;53.342;-1.534;2023-12-20T09:10:46;2;0;
56688;PMS5003;42565;53.342;-1.534;2023-12-20T09:13:13;1;1;
56688;PMS5003;42565;53.342;-1.534;2023-12-20T09:15:40;0;0;
56688;PMS5003;42565;53.342;-1.534;2023-12-20T09:18:07;1;1;
56688;PMS5003;42565;53.342;-1.534;2023-12-20T09:20:34;0;0;
56688;PMS5003;42565;53.342;-1.534;2023-12-20T09:23:02;1;1;
56688;PMS5003;42565;53.342;-1.534;2023-12-20T09:25:29;2;1;
56688;PMS5003;42565;53.342;-1.534;2023-12-20T09:27:56;0;0;
56688;PMS5003;42565;53.342;-1.534;2023-12-20T09:30:23;1;1;
56688;PMS5003;42565;53.342;-1.534;2023-12-20T09:32:50;1;1;
56688;PMS5003;42565;53.342;-1.534;2023-12-20T09:35:17;2;1;
56688;PMS5003;42565;53.342;-1.534;2023-12-20T09:37:44;0;0;
56688;PMS5003;42565;53.342;-1.534;2023-12-20T09:40:11;1;1;
56688;PMS5003;42565;53.342;-1.534;2023-12-20T09:42:42;1;0;
56688;PMS5003;42565;53.342;-1.534;2023-12-20T09:45:14;1;1;
56688;PMS5003;42565;53.342;-1.534;2023-12-20T09:47:42;0;0;
56688;PMS5003;42565;53.342;-1.534;2023-12-20T09:50:09;0;0;
56688;PMS5003;42565;53.342;-1.534;2023-12-20T09:52:38;3;3;
56688;PMS5003;42565;53.342;-1.534;2023-12-20T09:55:06;1;1;
56688;PMS5003;42565;53.342;-1.534;2023-12-20T09:57:35;4;2;
56688;PMS5003;42565;53.342;-1.534;2023-12-20T10:00:02;2;2;
56688;PMS5003;42565;53.342;-1.534;2023-12-20T10:02:31;3;3;
56688;PMS5003;42565;53.342;-1.534;2023-12-20T10:04:57;3;3;
56688;PMS5003;42565;53.342;-1.534;2023-12-20T10:07:25;4;4;
56688;PMS5003;42565;53.342;-1.534;2023-12-20T10:09:54;6;5;
56688;PMS5003;42565;53.342;-1.534;2023-12-20T10:12:21;5;5;
56688;PMS5003;42565;53.342;-1.534;2023-12-20T10:14:48;7;6;
56688;PMS5003;42565;53.342;-1.534;2023-12-20T10:17:14;6;6;
56688;PMS5003;42565;53.342;-1.534;2023-12-20T10:19:42;7;6;
56688;PMS5003;42565;53.342;-1.534;2023-12-20T10:22:10;3;3;
56688;PMS5003;42565;53.342;-1.534;2023-12-20T10:24:37;5;5;
56688;PMS5003;42565;53.342;-1.534;2023-12-20T10:27:06;5;5;
56688;PMS5003;42565;53.342;-1.534;2023-12-20T10:29:35;4;4;
56688;PMS5003;42565;53.342;-1.534;2023-12-20T10:32:22;3;3;
56688;PMS5003;42565;53.342;-1.534;2023-12-20T10:34:50;3;3;
56688;PMS5003;42565;53.342;-1.534;2023-12-20T10:37:17;2;2;
56688;PMS5003;42565;53.342;-1.534;2023-12-20T10:39:45;2;1;
56688;PMS5003;42565;53.342;-1.534;2023-12-20T10:42:15;4;3;
56688;PMS5003;42565;53.342;-1.534;2023-12-20T10:44:43;1;1;
56688;PMS5003;42565;53.342;-1.534;2023-12-20T10:47:10;2;2;
56688;PMS5003;42565;53.342;-1.534;2023-12-20T10:49:39;2;2;
56688;PMS5003;42565;53.342;-1.534;2023-12-20T10:52:07;3;3;
56688;PMS5003;42565;53.342;-1.534;2023-12-20T10:54:38;2;1;
56688;PMS5003;42565;53.342;-1.534;2023-12-20T10:57:06;0;0;
56688;PMS5003;42565;53.342;-1.534;2023-12-20T10:59:33;1;1;
56688;PMS5003;42565;53.342;-1.534;2023-12-20T11:02:03;2;2;
56688;PMS5003;42565;53.342;-1.534;2023-12-20T11:04:35;4;2;
56688;PMS5003;42565;53.342;-1.534;2023-12-20T11:07:15;2;2;
56688;PMS5003;42565;53.342;-1.534;2023-12-20T11:09:51;3;3;
56688;PMS5003;42565;53.342;-1.534;2023-12-20T11:12:25;5;4;
56688;PMS5003;42565;53.342;-1.534;2023-12-20T11:15:04;5;5;
56688;PMS5003;42565;53.342;-1.534;2023-12-20T11:17:32;4;2;
56688;PMS5003;42565;53.342;-1.534;2023-12-20T11:20:15;3;3;
56688;PMS5003;42565;53.342;-1.534;2023-12-20T11:22:51;4;3;
56688;PMS5003;42565;53.342;-1.534;2023-12-20T11:25:20;4;3;
56688;PMS5003;42565;53.342;-1.534;2023-12-20T11:28:07;3;1;
56688;PMS5003;42565;53.342;-1.534;2023-12-20T11:30:46;5;4;
56688;PMS5003;42565;53.342;-1.534;2023-12-20T11:33:14;3;3;
56688;PMS5003;42565;53.342;-1.534;2023-12-20T11:35:42;3;2;
56688;PMS5003;42565;53.342;-1.534;2023-12-20T11:38:09;3;2;
56688;PMS5003;42565;53.342;-1.534;2023-12-20T11:40:37;0;0;
56688;PMS5003;42565;53.342;-1.534;2023-12-20T11:43:04;2;1;
56688;PMS5003;42565;53.342;-1.534;2023-12-20T11:45:31;2;0;
56688;PMS5003;42565;53.342;-1.534;2023-12-20T11:47:58;3;2;
56688;PMS5003;42565;53.342;-1.534;2023-12-20T11:50:25;4;1;
56688;PMS5003;42565;53.342;-1.534;2023-12-20T11:52:52;4;2;
56688;PMS5003;42565;53.342;-1.534;2023-12-20T11:55:20;5;2;
56688;PMS5003;42565;53.342;-1.534;2023-12-20T11:57:47;4;3;
56688;PMS5003;42565;53.342;-1.534;2023-12-20T12:00:15;3;2;
56688;PMS5003;42565;53.342;-1.534;2023-12-20T12:02:54;2;2;
56688;PMS5003;42565;53.342;-1.534;2023-12-20T12:05:22;3;2;
56688;PMS5003;42565;53.342;-1.534;2023-12-20T12:07:49;3;2;
56688;PMS5003;42565;53.342;-1.534;2023-12-20T12:10:16;3;3;
56688;PMS5003;42565;53.342;-1.534;2023-12-20T12:12:43;4;3;
56688;PMS5003;42565;53.342;-1.534;2023-12-20T12:15:11;3;2;
56688;PMS5003;42565;53.342;-1.534;2023-12-20T12:17:38;5;3;
56688;PMS5003;42565;53.342;-1.534;2023-12-20T12:20:05;3;2;
56688;PMS5003;42565;53.342;-1.534;2023-12-20T12:22:33;3;2;
56688;PMS5003;42565;53.342;-1.534;2023-12-20T12:25:09;3;3;
56688;PMS5003;42565;53.342;-1.534;2023-12-20T12:27:39;1;0;
56688;PMS5003;42565;53.342;-1.534;2023-12-20T12:30:07;1;1;
56688;PMS5003;42565;53.342;-1.534;2023-12-20T12:32:36;2;2;
56688;PMS5003;42565;53.342;-1.534;2023-12-20T12:35:04;2;1;
56688;PMS5003;42565;53.342;-1.534;2023-12-20T12:37:31;3;1;
56688;PMS5003;42565;53.342;-1.534;2023-12-20T12:40:00;0;0;
56688;PMS5003;42565;53.342;-1.534;2023-12-20T12:42:28;2;1;
56688;PMS5003;42565;53.342;-1.534;2023-12-20T12:44:54;2;1;
56688;PMS5003;42565;53.342;-1.534;2023-12-20T12:47:21;4;2;
56688;PMS5003;42565;53.342;-1.534;2023-12-20T12:49:49;3;2;
56688;PMS5003;42565;53.342;-1.534;2023-12-20T12:52:18;3;1;
56688;PMS5003;42565;53.342;-1.534;2023-12-20T12:54:45;1;1;
56688;PMS5003;42565;53.342;-1.534;2023-12-20T12:57:11;0;0;
56688;PMS5003;42565;53.342;-1.534;2023-12-20T12:59:40;2;2;
56688;PMS5003;42565;53.342;-1.534;2023-12-20T13:02:07;2;1;
56688;PMS5003;42565;53.342;-1.534;2023-12-20T13:04:34;1;1;
56688;PMS5003;42565;53.342;-1.534;2023-12-20T13:07:01;1;1;
56688;PMS5003;42565;53.342;-1.534;2023-12-20T13:09:28;1;1;
56688;PMS5003;42565;53.342;-1.534;2023-12-20T13:11:55;1;1;
56688;PMS5003;42565;53.342;-1.534;2023-12-20T13:14:22;1;1;
56688;PMS5003;42565;53.342;-1.534;2023-12-20T13:16:48;4;3;
56688;PMS5003;42565;53.342;-1.534;2023-12-20T13:19:15;4;4;
56688;PMS5003;42565;53.342;-1.534;2023-12-20T13:21:43;3;2;
56688;PMS5003;42565;53.342;-1.534;2023-12-20T13:24:09;3;3;
56688;PMS5003;42565;53.342;-1.534;2023-12-20T13:26:36;3;3;
56688;PMS5003;42565;53.342;-1.534;2023-12-20T13:29:04;2;2;
56688;PMS5003;42565;53.342;-1.534;2023-12-20T13:31:31;4;4;
56688;PMS5003;42565;53.342;-1.534;2023-12-20T13:33:58;3;3;
56688;PMS5003;42565;53.342;-1.534;2023-12-20T13:36:24;2;2;
56688;PMS5003;42565;53.342;-1.534;2023-12-20T13:38:51;3;3;
56688;PMS5003;42565;53.342;-1.534;2023-12-20T13:41:18;7;4;
56688;PMS5003;42565;53.342;-1.534;2023-12-20T13:43:45;5;4;
56688;PMS5003;42565;53.342;-1.534;2023-12-20T13:46:12;3;2;
56688;PMS5003;42565;53.342;-1.534;2023-12-20T13:48:40;3;2;
56688;PMS5003;42565;53.342;-1.534;2023-12-20T13:51:06;3;3;
56688;PMS5003;42565;53.342;-1.534;2023-12-20T13:53:34;5;3;
56688;PMS5003;42565;53.342;-1.534;2023-12-20T13:56:01;4;4;
56688;PMS5003;42565;53.342;-1.534;2023-12-20T13:58:27;3;3;
56688;PMS5003;42565;53.342;-1.534;2023-12-20T14:00:54;3;3;
56688;PMS5003;42565;53.342;-1.534;2023-12-20T14:03:21;1;1;
56688;PMS5003;42565;53.342;-1.534;2023-12-20T14:05:48;1;1;
56688;PMS5003;42565;53.342;-1.534;2023-12-20T14:08:15;2;2;
56688;PMS5003;42565;53.342;-1.534;2023-12-20T14:10:42;3;2;
56688;PMS5003;42565;53.342;-1.534;2023-12-20T14:13:09;2;1;
56688;PMS5003;42565;53.342;-1.534;2023-12-20T14:15:36;2;2;
56688;PMS5003;42565;53.342;-1.534;2023-12-20T14:18:04;2;2;
56688;PMS5003;42565;53.342;-1.534;2023-12-20T14:20:31;3;2;
56688;PMS5003;42565;53.342;-1.534;2023-12-20T14:22:58;3;2;
56688;PMS5003;42565;53.342;-1.534;2023-12-20T14:25:25;2;2;
56688;PMS5003;42565;53.342;-1.534;2023-12-20T14:27:51;1;1;
56688;PMS5003;42565;53.342;-1.534;2023-12-20T14:30:18;1;1;
56688;PMS5003;42565;53.342;-1.534;2023-12-20T14:32:46;0;0;
56688;PMS5003;42565;53.342;-1.534;2023-12-20T14:35:13;1;1;
56688;PMS5003;42565;53.342;-1.534;2023-12-20T14:37:41;2;2;
56688;PMS5003;42565;53.342;-1.534;2023-12-20T14:40:09;1;1;
56688;PMS5003;42565;53.342;-1.534;2023-12-20T14:42:37;1;1;
56688;PMS5003;42565;53.342;-1.534;2023-12-20T14:45:04;1;0;
56688;PMS5003;42565;53.342;-1.534;2023-12-20T14:47:32;1;1;
56688;PMS5003;42565;53.342;-1.534;2023-12-20T14:49:59;0;0;
56688;PMS5003;42565;53.342;-1.534;2023-12-20T14:52:26;0;0;
56688;PMS5003;42565;53.342;-1.534;2023-12-20T14:54:53;1;1;
56688;PMS5003;42565;53.342;-1.534;2023-12-20T14:57:20;2;1;
56688;PMS5003;42565;53.342;-1.534;2023-12-20T14:59:46;1;1;
56688;PMS5003;42565;53.342;-1.534;2023-12-20T15:02:13;1;1;
56688;PMS5003;42565;53.342;-1.534;2023-12-20T15:04:40;1;1;
56688;PMS5003;42565;53.342;-1.534;2023-12-20T15:07:06;3;2;
56688;PMS5003;42565;53.342;-1.534;2023-12-20T15:09:33;3;3;
56688;PMS5003;42565;53.342;-1.534;2023-12-20T15:12:01;4;4;
56688;PMS5003;42565;53.342;-1.534;2023-12-20T15:14:28;2;2;
56688;PMS5003;42565;53.342;-1.534;2023-12-20T15:16:55;2;2;
56688;PMS5003;42565;53.342;-1.534;2023-12-20T15:19:22;3;3;
56688;PMS5003;42565;53.342;-1.534;2023-12-20T15:21:48;5;3;
56688;PMS5003;42565;53.342;-1.534;2023-12-20T15:24:15;4;2;
56688;PMS5003;42565;53.342;-1.534;2023-12-20T15:26:43;2;2;
56688;PMS5003;42565;53.342;-1.534;2023-12-20T15:29:10;1;1;
56688;PMS5003;42565;53.342;-1.534;2023-12-20T15:31:41;2;2;
56688;PMS5003;42565;53.342;-1.534;2023-12-20T15:34:09;2;2;
56688;PMS5003;42565;53.342;-1.534;2023-12-20T15:36:36;2;2;
56688;PMS5003;42565;53.342;-1.534;2023-12-20T15:39:02;3;3;
56688;PMS5003;42565;53.342;-1.534;2023-12-20T15:41:30;1;1;
56688;PMS5003;42565;53.342;-1.534;2023-12-20T15:43:57;1;1;
56688;PMS5003;42565;53.342;-1.534;2023-12-20T15:46:24;2;1;
56688;PMS5003;42565;53.342;-1.534;2023-12-20T15:48:51;2;2;
56688;PMS5003;42565;53.342;-1.534;2023-12-20T15:51:19;4;3;
56688;PMS5003;42565;53.342;-1.534;2023-12-20T15:53:47;0;0;
56688;PMS5003;42565;53.342;-1.534;2023-12-20T15:56:15;0;0;
56688;PMS5003;42565;53.342;-1.534;2023-12-20T15:58:42;1;1;
56688;PMS5003;42565;53.342;-1.534;2023-12-20T16:01:10;2;2;
56688;PMS5003;42565;53.342;-1.534;2023-12-20T16:03:37;2;1;
56688;PMS5003;42565;53.342;-1.534;2023-12-20T16:06:04;2;2;
56688;PMS5003;42565;53.342;-1.534;2023-12-20T16:08:32;2;2;
56688;PMS5003;42565;53.342;-1.534;2023-12-20T16:10:59;1;1;
56688;PMS5003;42565;53.342;-1.534;2023-12-20T16:13:26;1;1;
56688;PMS5003;42565;53.342;-1.534;2023-12-20T16:15:53;3;2;
56688;PMS5003;42565;53.342;-1.534;2023-12-20T16:18:21;3;2;
56688;PMS5003;42565;53.342;-1.534;2023-12-20T16:20:47;1;0;
56688;PMS5003;42565;53.342;-1.534;2023-12-20T16:23:14;0;0;
56688;PMS5003;42565;53.342;-1.534;2023-12-20T16:25:41;1;1;
56688;PMS5003;42565;53.342;-1.534;2023-12-20T16:28:08;2;2;
56688;PMS5003;42565;53.342;-1.534;2023-12-20T16:30:36;3;2;
56688;PMS5003;42565;53.342;-1.534;2023-12-20T16:33:04;3;3;
56688;PMS5003;42565;53.342;-1.534;2023-12-20T16:35:31;2;2;